sensor_id;sensor_type;location;lat;lon;timestamp;P1;durP1;ratioP1;P2;durP2;ratioP2
7529;SDS011;3806;52.270;10.544;2022-09-16T00:00:19;2.53;;;1.05;;
7529;SDS011;3806;52.270;10.544;2022-09-16T00:02:45;2.45;;;0.85;;
7529;SDS011;3806;52.270;10.544;2022-09-16T00:05:11;4.28;;;1.02;;
7529;SDS011;3806;52.270;10.544;2022-09-16T00:07:36;3.00;;;0.95;;
7529;SDS011;3806;52.270;10.544;2022-09-16T00:10:03;1.10;;;0.90;;
7529;SDS011;3806;52.270;10.544;2022-09-16T00:12:30;5.35;;;1.10;;
7529;SDS011;3806;52.270;10.544;2022-09-16T00:14:56;3.47;;;0.88;;
7529;SDS011;3806;52.270;10.544;2022-09-16T00:17:22;1.65;;;0.93;;
7529;SDS011;3806;52.270;10.544;2022-09-16T00:19:47;5.03;;;1.00;;
7529;SDS011;3806;52.270;10.544;2022-09-16T00:22:14;3.78;;;1.45;;
7529;SDS011;3806;52.270;10.544;2022-09-16T00:24:40;5.13;;;1.45;;
7529;SDS011;3806;52.270;10.544;2022-09-16T00:27:06;3.03;;;1.00;;
7529;SDS011;3806;52.270;10.544;2022-09-16T00:29:32;3.90;;;1.17;;
7529;SDS011;3806;52.270;10.544;2022-09-16T00:31:58;3.40;;;1.40;;
7529;SDS011;3806;52.270;10.544;2022-09-16T00:34:23;3.92;;;0.90;;
7529;SDS011;3806;52.270;10.544;2022-09-16T00:36:49;2.25;;;1.27;;
7529;SDS011;3806;52.270;10.544;2022-09-16T00:39:15;2.70;;;1.00;;
7529;SDS011;3806;52.270;10.544;2022-09-16T00:41:41;2.28;;;1.27;;
7529;SDS011;3806;52.270;10.544;2022-09-16T00:44:49;2.20;;;0.68;;
7529;SDS011;3806;52.270;10.544;2022-09-16T00:47:11;2.10;;;0.80;;
7529;SDS011;3806;52.270;10.544;2022-09-16T00:49:40;1.80;;;0.85;;
7529;SDS011;3806;52.270;10.544;2022-09-16T00:52:07;0.77;;;0.70;;
7529;SDS011;3806;52.270;10.544;2022-09-16T00:54:34;7.65;;;1.10;;
7529;SDS011;3806;52.270;10.544;2022-09-16T00:57:01;3.25;;;0.98;;
7529;SDS011;3806;52.270;10.544;2022-09-16T00:59:30;3.25;;;0.90;;
7529;SDS011;3806;52.270;10.544;2022-09-16T01:02:08;4.88;;;1.00;;
7529;SDS011;3806;52.270;10.544;2022-09-16T01:04:43;0.90;;;0.77;;
7529;SDS011;3806;52.270;10.544;2022-09-16T01:07:21;3.28;;;0.90;;
7529;SDS011;3806;52.270;10.544;2022-09-16T01:09:53;5.13;;;1.00;;
7529;SDS011;3806;52.270;10.544;2022-09-16T01:12:20;4.30;;;1.08;;
7529;SDS011;3806;52.270;10.544;2022-09-16T01:14:46;3.47;;;0.60;;
7529;SDS011;3806;52.270;10.544;2022-09-16T01:20:02;2.45;;;1.30;;
7529;SDS011;3806;52.270;10.544;2022-09-16T01:28:28;0.80;;;0.70;;
7529;SDS011;3806;52.270;10.544;2022-09-16T01:40:26;1.95;;;1.10;;
7529;SDS011;3806;52.270;10.544;2022-09-16T01:45:34;2.08;;;1.20;;
7529;SDS011;3806;52.270;10.544;2022-09-16T01:50:59;2.60;;;1.27;;
7529;SDS011;3806;52.270;10.544;2022-09-16T01:53:39;2.97;;;1.50;;
7529;SDS011;3806;52.270;10.544;2022-09-16T01:58:40;1.70;;;1.25;;
7529;SDS011;3806;52.270;10.544;2022-09-16T02:01:11;7.20;;;1.63;;
7529;SDS011;3806;52.270;10.544;2022-09-16T02:03:48;2.42;;;1.50;;
7529;SDS011;3806;52.270;10.544;2022-09-16T02:06:20;3.05;;;1.30;;
7529;SDS011;3806;52.270;10.544;2022-09-16T02:08:50;4.15;;;1.60;;
7529;SDS011;3806;52.270;10.544;2022-09-16T02:11:20;3.78;;;1.30;;
7529;SDS011;3806;52.270;10.544;2022-09-16T02:13:54;2.53;;;1.30;;
7529;SDS011;3806;52.270;10.544;2022-09-16T02:18:56;3.50;;;1.40;;
7529;SDS011;3806;52.270;10.544;2022-09-16T02:21:26;2.25;;;1.83;;
7529;SDS011;3806;52.270;10.544;2022-09-16T02:23:56;2.53;;;1.35;;
7529;SDS011;3806;52.270;10.544;2022-09-16T02:26:28;5.05;;;1.38;;
7529;SDS011;3806;52.270;10.544;2022-09-16T02:28:58;4.05;;;1.60;;
7529;SDS011;3806;52.270;10.544;2022-09-16T02:31:27;4.88;;;2.00;;
7529;SDS011;3806;52.270;10.544;2022-09-16T02:34:01;3.05;;;1.80;;
7529;SDS011;3806;52.270;10.544;2022-09-16T02:36:34;2.72;;;1.40;;
7529;SDS011;3806;52.270;10.544;2022-09-16T02:39:03;1.75;;;1.40;;
7529;SDS011;3806;52.270;10.544;2022-09-16T02:41:33;1.33;;;1.08;;
7529;SDS011;3806;52.270;10.544;2022-09-16T02:44:00;5.78;;;1.38;;
7529;SDS011;3806;52.270;10.544;2022-09-16T02:46:37;7.95;;;1.70;;
7529;SDS011;3806;52.270;10.544;2022-09-16T02:49:22;3.08;;;1.40;;
7529;SDS011;3806;52.270;10.544;2022-09-16T02:51:58;1.90;;;1.20;;
7529;SDS011;3806;52.270;10.544;2022-09-16T02:57:30;4.68;;;1.70;;
7529;SDS011;3806;52.270;10.544;2022-09-16T02:59:57;2.53;;;1.90;;
7529;SDS011;3806;52.270;10.544;2022-09-16T03:02:22;1.17;;;1.08;;
7529;SDS011;3806;52.270;10.544;2022-09-16T03:04:49;2.10;;;1.40;;
7529;SDS011;3806;52.270;10.544;2022-09-16T03:07:15;2.42;;;1.33;;
7529;SDS011;3806;52.270;10.544;2022-09-16T03:09:42;3.30;;;0.98;;
7529;SDS011;3806;52.270;10.544;2022-09-16T03:22:58;3.95;;;1.13;;
7529;SDS011;3806;52.270;10.544;2022-09-16T03:30:46;4.40;;;1.40;;
7529;SDS011;3806;52.270;10.544;2022-09-16T03:35:55;3.10;;;1.10;;
7529;SDS011;3806;52.270;10.544;2022-09-16T03:38:24;2.83;;;1.23;;
7529;SDS011;3806;52.270;10.544;2022-09-16T03:40:51;4.30;;;1.50;;
7529;SDS011;3806;52.270;10.544;2022-09-16T03:43:17;2.55;;;1.17;;
7529;SDS011;3806;52.270;10.544;2022-09-16T03:45:43;3.38;;;1.13;;
7529;SDS011;3806;52.270;10.544;2022-09-16T03:48:09;2.80;;;1.27;;
7529;SDS011;3806;52.270;10.544;2022-09-16T03:50:36;3.55;;;1.00;;
7529;SDS011;3806;52.270;10.544;2022-09-16T03:53:01;4.07;;;1.45;;
7529;SDS011;3806;52.270;10.544;2022-09-16T03:55:27;3.47;;;1.00;;
7529;SDS011;3806;52.270;10.544;2022-09-16T03:57:54;6.47;;;1.50;;
7529;SDS011;3806;52.270;10.544;2022-09-16T04:00:20;2.17;;;1.33;;
7529;SDS011;3806;52.270;10.544;2022-09-16T04:02:47;1.98;;;1.30;;
7529;SDS011;3806;52.270;10.544;2022-09-16T04:05:12;2.05;;;1.10;;
7529;SDS011;3806;52.270;10.544;2022-09-16T04:07:38;2.55;;;1.00;;
7529;SDS011;3806;52.270;10.544;2022-09-16T04:10:04;2.88;;;1.55;;
7529;SDS011;3806;52.270;10.544;2022-09-16T04:12:31;3.80;;;1.05;;
7529;SDS011;3806;52.270;10.544;2022-09-16T04:14:56;5.63;;;1.40;;
7529;SDS011;3806;52.270;10.544;2022-09-16T04:17:22;3.25;;;1.38;;
7529;SDS011;3806;52.270;10.544;2022-09-16T04:19:48;5.72;;;1.48;;
7529;SDS011;3806;52.270;10.544;2022-09-16T04:22:14;6.22;;;1.95;;
7529;SDS011;3806;52.270;10.544;2022-09-16T04:24:39;2.85;;;1.50;;
7529;SDS011;3806;52.270;10.544;2022-09-16T04:27:05;4.13;;;1.70;;
7529;SDS011;3806;52.270;10.544;2022-09-16T04:29:31;4.68;;;2.17;;
7529;SDS011;3806;52.270;10.544;2022-09-16T04:31:57;3.05;;;1.50;;
7529;SDS011;3806;52.270;10.544;2022-09-16T04:34:22;6.68;;;1.80;;
7529;SDS011;3806;52.270;10.544;2022-09-16T04:36:48;3.05;;;1.45;;
7529;SDS011;3806;52.270;10.544;2022-09-16T04:39:14;4.32;;;1.65;;
7529;SDS011;3806;52.270;10.544;2022-09-16T04:41:39;1.95;;;1.10;;
7529;SDS011;3806;52.270;10.544;2022-09-16T04:44:05;3.00;;;1.35;;
7529;SDS011;3806;52.270;10.544;2022-09-16T04:46:31;1.90;;;1.63;;
7529;SDS011;3806;52.270;10.544;2022-09-16T04:48:58;3.00;;;1.40;;
7529;SDS011;3806;52.270;10.544;2022-09-16T04:51:24;4.03;;;1.63;;
7529;SDS011;3806;52.270;10.544;2022-09-16T04:53:52;3.30;;;1.52;;
7529;SDS011;3806;52.270;10.544;2022-09-16T04:56:20;2.67;;;1.55;;
7529;SDS011;3806;52.270;10.544;2022-09-16T04:58:49;4.22;;;1.85;;
7529;SDS011;3806;52.270;10.544;2022-09-16T05:01:21;6.32;;;1.60;;
7529;SDS011;3806;52.270;10.544;2022-09-16T05:03:49;3.75;;;1.27;;
7529;SDS011;3806;52.270;10.544;2022-09-16T05:06:18;1.63;;;1.17;;
7529;SDS011;3806;52.270;10.544;2022-09-16T05:08:45;3.47;;;1.67;;
7529;SDS011;3806;52.270;10.544;2022-09-16T05:11:13;3.03;;;1.20;;
7529;SDS011;3806;52.270;10.544;2022-09-16T05:13:41;5.20;;;1.05;;
7529;SDS011;3806;52.270;10.544;2022-09-16T05:16:08;2.38;;;1.48;;
7529;SDS011;3806;52.270;10.544;2022-09-16T05:18:36;3.38;;;1.30;;
7529;SDS011;3806;52.270;10.544;2022-09-16T05:21:03;2.35;;;1.40;;
7529;SDS011;3806;52.270;10.544;2022-09-16T05:23:31;4.20;;;1.40;;
7529;SDS011;3806;52.270;10.544;2022-09-16T05:26:08;2.83;;;1.33;;
7529;SDS011;3806;52.270;10.544;2022-09-16T05:28:36;4.22;;;1.38;;
7529;SDS011;3806;52.270;10.544;2022-09-16T05:33:55;7.53;;;1.35;;
7529;SDS011;3806;52.270;10.544;2022-09-16T05:36:23;4.00;;;1.40;;
7529;SDS011;3806;52.270;10.544;2022-09-16T05:38:50;2.42;;;1.58;;
7529;SDS011;3806;52.270;10.544;2022-09-16T05:41:16;3.30;;;1.08;;
7529;SDS011;3806;52.270;10.544;2022-09-16T05:43:42;4.65;;;1.30;;
7529;SDS011;3806;52.270;10.544;2022-09-16T05:46:09;3.20;;;0.95;;
7529;SDS011;3806;52.270;10.544;2022-09-16T05:48:40;2.92;;;1.30;;
7529;SDS011;3806;52.270;10.544;2022-09-16T05:51:07;3.05;;;1.08;;
7529;SDS011;3806;52.270;10.544;2022-09-16T05:53:33;1.85;;;1.10;;
7529;SDS011;3806;52.270;10.544;2022-09-16T05:56:00;4.45;;;1.48;;
7529;SDS011;3806;52.270;10.544;2022-09-16T05:58:28;2.47;;;1.20;;
7529;SDS011;3806;52.270;10.544;2022-09-16T06:00:58;4.10;;;1.40;;
7529;SDS011;3806;52.270;10.544;2022-09-16T06:03:35;2.58;;;1.20;;
7529;SDS011;3806;52.270;10.544;2022-09-16T06:06:04;5.03;;;1.02;;
7529;SDS011;3806;52.270;10.544;2022-09-16T06:08:32;2.83;;;1.17;;
7529;SDS011;3806;52.270;10.544;2022-09-16T06:11:01;1.98;;;0.90;;
7529;SDS011;3806;52.270;10.544;2022-09-16T06:13:27;2.70;;;1.10;;
7529;SDS011;3806;52.270;10.544;2022-09-16T06:15:53;3.22;;;0.80;;
7529;SDS011;3806;52.270;10.544;2022-09-16T06:18:19;4.07;;;0.93;;
7529;SDS011;3806;52.270;10.544;2022-09-16T06:20:46;2.20;;;0.65;;
7529;SDS011;3806;52.270;10.544;2022-09-16T06:23:12;4.60;;;1.42;;
7529;SDS011;3806;52.270;10.544;2022-09-16T06:25:38;5.40;;;1.23;;
7529;SDS011;3806;52.270;10.544;2022-09-16T06:28:04;3.78;;;1.10;;
7529;SDS011;3806;52.270;10.544;2022-09-16T06:30:30;2.95;;;0.68;;
7529;SDS011;3806;52.270;10.544;2022-09-16T06:32:55;1.23;;;0.68;;
7529;SDS011;3806;52.270;10.544;2022-09-16T06:35:21;1.13;;;1.00;;
7529;SDS011;3806;52.270;10.544;2022-09-16T06:37:46;1.77;;;0.85;;
7529;SDS011;3806;52.270;10.544;2022-09-16T06:40:12;3.47;;;1.85;;
7529;SDS011;3806;52.270;10.544;2022-09-16T06:42:37;1.27;;;0.80;;
7529;SDS011;3806;52.270;10.544;2022-09-16T06:45:04;1.95;;;0.40;;
7529;SDS011;3806;52.270;10.544;2022-09-16T06:47:30;2.13;;;0.70;;
7529;SDS011;3806;52.270;10.544;2022-09-16T06:49:57;2.40;;;0.60;;
7529;SDS011;3806;52.270;10.544;2022-09-16T06:52:24;1.83;;;0.70;;
7529;SDS011;3806;52.270;10.544;2022-09-16T06:54:50;3.58;;;0.70;;
7529;SDS011;3806;52.270;10.544;2022-09-16T06:57:16;1.08;;;0.52;;
7529;SDS011;3806;52.270;10.544;2022-09-16T06:59:47;1.40;;;0.80;;
7529;SDS011;3806;52.270;10.544;2022-09-16T07:02:13;2.47;;;0.73;;
7529;SDS011;3806;52.270;10.544;2022-09-16T07:04:39;1.90;;;0.80;;
7529;SDS011;3806;52.270;10.544;2022-09-16T07:07:05;2.65;;;1.00;;
7529;SDS011;3806;52.270;10.544;2022-09-16T07:09:30;1.77;;;0.60;;
7529;SDS011;3806;52.270;10.544;2022-09-16T07:11:56;1.35;;;0.73;;
7529;SDS011;3806;52.270;10.544;2022-09-16T07:14:26;1.30;;;0.50;;
7529;SDS011;3806;52.270;10.544;2022-09-16T07:16:52;2.28;;;0.88;;
7529;SDS011;3806;52.270;10.544;2022-09-16T07:19:18;0.90;;;0.45;;
7529;SDS011;3806;52.270;10.544;2022-09-16T07:21:44;1.17;;;0.50;;
7529;SDS011;3806;52.270;10.544;2022-09-16T07:24:11;3.13;;;0.80;;
7529;SDS011;3806;52.270;10.544;2022-09-16T07:26:38;4.43;;;0.60;;
7529;SDS011;3806;52.270;10.544;2022-09-16T07:29:05;1.90;;;0.90;;
7529;SDS011;3806;52.270;10.544;2022-09-16T07:31:34;3.08;;;0.60;;
7529;SDS011;3806;52.270;10.544;2022-09-16T07:34:01;3.55;;;0.50;;
7529;SDS011;3806;52.270;10.544;2022-09-16T07:36:30;2.60;;;0.70;;
7529;SDS011;3806;52.270;10.544;2022-09-16T07:38:58;2.70;;;0.65;;
7529;SDS011;3806;52.270;10.544;2022-09-16T07:41:25;1.70;;;0.65;;
7529;SDS011;3806;52.270;10.544;2022-09-16T07:43:53;3.38;;;0.73;;
7529;SDS011;3806;52.270;10.544;2022-09-16T07:46:23;0.98;;;0.38;;
7529;SDS011;3806;52.270;10.544;2022-09-16T07:48:49;1.77;;;0.40;;
7529;SDS011;3806;52.270;10.544;2022-09-16T07:51:20;1.65;;;0.57;;
7529;SDS011;3806;52.270;10.544;2022-09-16T07:53:47;0.57;;;0.40;;
7529;SDS011;3806;52.270;10.544;2022-09-16T07:56:18;2.55;;;0.45;;
7529;SDS011;3806;52.270;10.544;2022-09-16T07:58:45;2.55;;;0.68;;
7529;SDS011;3806;52.270;10.544;2022-09-16T08:01:12;2.20;;;0.52;;
7529;SDS011;3806;52.270;10.544;2022-09-16T08:03:42;4.00;;;0.50;;
7529;SDS011;3806;52.270;10.544;2022-09-16T08:06:13;1.10;;;0.40;;
7529;SDS011;3806;52.270;10.544;2022-09-16T08:11:11;1.90;;;0.60;;
7529;SDS011;3806;52.270;10.544;2022-09-16T08:13:38;3.80;;;0.63;;
7529;SDS011;3806;52.270;10.544;2022-09-16T08:16:06;2.25;;;0.47;;
7529;SDS011;3806;52.270;10.544;2022-09-16T08:18:34;4.05;;;0.77;;
7529;SDS011;3806;52.270;10.544;2022-09-16T08:21:06;2.13;;;0.75;;
7529;SDS011;3806;52.270;10.544;2022-09-16T08:23:34;2.38;;;0.73;;
7529;SDS011;3806;52.270;10.544;2022-09-16T08:26:00;1.58;;;0.50;;
7529;SDS011;3806;52.270;10.544;2022-09-16T08:28:26;1.85;;;0.68;;
7529;SDS011;3806;52.270;10.544;2022-09-16T08:30:53;4.25;;;0.70;;
7529;SDS011;3806;52.270;10.544;2022-09-16T08:33:22;2.35;;;0.55;;
7529;SDS011;3806;52.270;10.544;2022-09-16T08:35:56;2.88;;;0.50;;
7529;SDS011;3806;52.270;10.544;2022-09-16T08:38:42;2.00;;;0.52;;
7529;SDS011;3806;52.270;10.544;2022-09-16T08:52:02;4.53;;;0.70;;
7529;SDS011;3806;52.270;10.544;2022-09-16T08:54:37;2.22;;;0.80;;
7529;SDS011;3806;52.270;10.544;2022-09-16T08:57:11;3.78;;;0.77;;
7529;SDS011;3806;52.270;10.544;2022-09-16T08:59:59;2.63;;;0.82;;
7529;SDS011;3806;52.270;10.544;2022-09-16T09:02:45;5.20;;;1.25;;
7529;SDS011;3806;52.270;10.544;2022-09-16T09:08:13;2.30;;;0.90;;
7529;SDS011;3806;52.270;10.544;2022-09-16T09:13:37;2.95;;;0.80;;
7529;SDS011;3806;52.270;10.544;2022-09-16T09:19:33;2.13;;;0.85;;
7529;SDS011;3806;52.270;10.544;2022-09-16T09:30:25;4.22;;;0.93;;
7529;SDS011;3806;52.270;10.544;2022-09-16T09:36:21;4.90;;;1.10;;
7529;SDS011;3806;52.270;10.544;2022-09-16T09:39:05;3.95;;;0.73;;
7529;SDS011;3806;52.270;10.544;2022-09-16T09:41:51;2.10;;;0.60;;
7529;SDS011;3806;52.270;10.544;2022-09-16T09:46:55;3.20;;;0.68;;
7529;SDS011;3806;52.270;10.544;2022-09-16T09:54:49;3.25;;;0.90;;
7529;SDS011;3806;52.270;10.544;2022-09-16T09:57:33;6.90;;;1.00;;
7529;SDS011;3806;52.270;10.544;2022-09-16T10:02:41;5.88;;;0.70;;
7529;SDS011;3806;52.270;10.544;2022-09-16T10:05:20;3.08;;;0.82;;
7529;SDS011;3806;52.270;10.544;2022-09-16T10:07:51;2.42;;;0.50;;
7529;SDS011;3806;52.270;10.544;2022-09-16T10:10:22;2.13;;;0.90;;
7529;SDS011;3806;52.270;10.544;2022-09-16T10:12:49;1.48;;;0.70;;
7529;SDS011;3806;52.270;10.544;2022-09-16T10:15:23;1.98;;;0.80;;
7529;SDS011;3806;52.270;10.544;2022-09-16T10:17:53;3.47;;;0.95;;
7529;SDS011;3806;52.270;10.544;2022-09-16T10:20:27;6.57;;;1.60;;
7529;SDS011;3806;52.270;10.544;2022-09-16T10:23:01;4.32;;;0.85;;
7529;SDS011;3806;52.270;10.544;2022-09-16T10:25:30;3.10;;;0.85;;
7529;SDS011;3806;52.270;10.544;2022-09-16T10:28:01;4.57;;;0.93;;
7529;SDS011;3806;52.270;10.544;2022-09-16T10:30:51;6.95;;;1.30;;
7529;SDS011;3806;52.270;10.544;2022-09-16T10:35:55;3.65;;;1.05;;
7529;SDS011;3806;52.270;10.544;2022-09-16T10:38:34;3.67;;;0.88;;
7529;SDS011;3806;52.270;10.544;2022-09-16T10:43:34;6.65;;;0.88;;
7529;SDS011;3806;52.270;10.544;2022-09-16T10:46:03;1.38;;;0.50;;
7529;SDS011;3806;52.270;10.544;2022-09-16T10:48:29;6.40;;;1.20;;
7529;SDS011;3806;52.270;10.544;2022-09-16T10:50:58;4.38;;;0.80;;
7529;SDS011;3806;52.270;10.544;2022-09-16T10:53:33;2.03;;;0.43;;
7529;SDS011;3806;52.270;10.544;2022-09-16T10:56:04;4.30;;;0.68;;
7529;SDS011;3806;52.270;10.544;2022-09-16T10:58:39;3.30;;;0.60;;
7529;SDS011;3806;52.270;10.544;2022-09-16T11:06:35;2.30;;;0.70;;
7529;SDS011;3806;52.270;10.544;2022-09-16T11:12:33;2.33;;;0.68;;
7529;SDS011;3806;52.270;10.544;2022-09-16T11:20:43;2.08;;;0.77;;
7529;SDS011;3806;52.270;10.544;2022-09-16T11:25:47;5.75;;;1.73;;
7529;SDS011;3806;52.270;10.544;2022-09-16T11:28:46;2.08;;;0.65;;
7529;SDS011;3806;52.270;10.544;2022-09-16T11:34:06;4.43;;;0.88;;
7529;SDS011;3806;52.270;10.544;2022-09-16T11:37:05;1.88;;;0.52;;
7529;SDS011;3806;52.270;10.544;2022-09-16T11:45:05;7.03;;;1.00;;
7529;SDS011;3806;52.270;10.544;2022-09-16T11:50:34;2.67;;;0.60;;
7529;SDS011;3806;52.270;10.544;2022-09-16T11:53:18;2.92;;;0.80;;
7529;SDS011;3806;52.270;10.544;2022-09-16T11:56:07;1.83;;;0.68;;
7529;SDS011;3806;52.270;10.544;2022-09-16T12:01:26;2.70;;;0.60;;
7529;SDS011;3806;52.270;10.544;2022-09-16T12:09:18;1.48;;;0.38;;
7529;SDS011;3806;52.270;10.544;2022-09-16T12:11:50;2.97;;;0.98;;
7529;SDS011;3806;52.270;10.544;2022-09-16T12:14:22;5.78;;;0.70;;
7529;SDS011;3806;52.270;10.544;2022-09-16T12:16:56;2.20;;;0.70;;
7529;SDS011;3806;52.270;10.544;2022-09-16T12:19:28;4.40;;;0.90;;
7529;SDS011;3806;52.270;10.544;2022-09-16T12:22:05;3.95;;;0.60;;
7529;SDS011;3806;52.270;10.544;2022-09-16T12:24:41;3.38;;;0.77;;
7529;SDS011;3806;52.270;10.544;2022-09-16T12:27:22;4.22;;;0.82;;
7529;SDS011;3806;52.270;10.544;2022-09-16T12:30:13;3.75;;;0.75;;
7529;SDS011;3806;52.270;10.544;2022-09-16T12:35:24;2.60;;;0.82;;
7529;SDS011;3806;52.270;10.544;2022-09-16T12:37:59;2.38;;;0.90;;
7529;SDS011;3806;52.270;10.544;2022-09-16T12:45:49;2.08;;;0.47;;
7529;SDS011;3806;52.270;10.544;2022-09-16T12:48:51;4.50;;;0.90;;
7529;SDS011;3806;52.270;10.544;2022-09-16T12:57:34;5.35;;;0.98;;
7529;SDS011;3806;52.270;10.544;2022-09-16T13:02:47;0.85;;;0.50;;
7529;SDS011;3806;52.270;10.544;2022-09-16T13:07:47;2.10;;;0.40;;
7529;SDS011;3806;52.270;10.544;2022-09-16T13:10:19;1.05;;;0.50;;
7529;SDS011;3806;52.270;10.544;2022-09-16T13:12:53;0.95;;;0.50;;
7529;SDS011;3806;52.270;10.544;2022-09-16T13:15:23;4.18;;;1.05;;
7529;SDS011;3806;52.270;10.544;2022-09-16T13:17:51;1.20;;;0.40;;
7529;SDS011;3806;52.270;10.544;2022-09-16T13:20:22;2.42;;;0.80;;
7529;SDS011;3806;52.270;10.544;2022-09-16T13:25:30;2.92;;;0.63;;
7529;SDS011;3806;52.270;10.544;2022-09-16T13:28:00;2.25;;;0.75;;
7529;SDS011;3806;52.270;10.544;2022-09-16T13:30:32;3.20;;;0.52;;
7529;SDS011;3806;52.270;10.544;2022-09-16T13:33:01;1.73;;;0.85;;
7529;SDS011;3806;52.270;10.544;2022-09-16T13:35:46;1.77;;;0.77;;
7529;SDS011;3806;52.270;10.544;2022-09-16T13:40:58;4.13;;;0.98;;
7529;SDS011;3806;52.270;10.544;2022-09-16T13:46:11;4.72;;;0.80;;
7529;SDS011;3806;52.270;10.544;2022-09-16T13:49:03;2.28;;;0.73;;
7529;SDS011;3806;52.270;10.544;2022-09-16T13:51:34;3.22;;;0.73;;
7529;SDS011;3806;52.270;10.544;2022-09-16T13:54:04;2.53;;;0.77;;
7529;SDS011;3806;52.270;10.544;2022-09-16T13:57:00;2.50;;;0.82;;
7529;SDS011;3806;52.270;10.544;2022-09-16T14:02:08;2.53;;;0.77;;
7529;SDS011;3806;52.270;10.544;2022-09-16T14:13:39;5.28;;;0.90;;
7529;SDS011;3806;52.270;10.544;2022-09-16T14:16:11;3.30;;;1.33;;
7529;SDS011;3806;52.270;10.544;2022-09-16T14:18:55;5.85;;;0.85;;
7529;SDS011;3806;52.270;10.544;2022-09-16T14:21:28;4.15;;;0.90;;
7529;SDS011;3806;52.270;10.544;2022-09-16T14:23:54;8.60;;;1.17;;
7529;SDS011;3806;52.270;10.544;2022-09-16T14:26:30;1.63;;;0.70;;
7529;SDS011;3806;52.270;10.544;2022-09-16T14:29:03;2.95;;;1.00;;
7529;SDS011;3806;52.270;10.544;2022-09-16T14:31:30;1.60;;;0.85;;
7529;SDS011;3806;52.270;10.544;2022-09-16T14:34:04;4.22;;;1.00;;
7529;SDS011;3806;52.270;10.544;2022-09-16T14:36:35;2.28;;;0.45;;
7529;SDS011;3806;52.270;10.544;2022-09-16T14:46:43;1.52;;;0.73;;
7529;SDS011;3806;52.270;10.544;2022-09-16T14:49:15;1.02;;;0.55;;
7529;SDS011;3806;52.270;10.544;2022-09-16T14:51:43;4.45;;;0.68;;
7529;SDS011;3806;52.270;10.544;2022-09-16T14:54:19;1.67;;;0.80;;
7529;SDS011;3806;52.270;10.544;2022-09-16T14:57:20;4.28;;;0.70;;
7529;SDS011;3806;52.270;10.544;2022-09-16T14:59:50;1.88;;;0.80;;
7529;SDS011;3806;52.270;10.544;2022-09-16T15:02:23;2.30;;;0.80;;
7529;SDS011;3806;52.270;10.544;2022-09-16T15:05:09;4.40;;;0.70;;
7529;SDS011;3806;52.270;10.544;2022-09-16T15:10:20;2.05;;;0.60;;
7529;SDS011;3806;52.270;10.544;2022-09-16T15:12:55;3.22;;;0.57;;
7529;SDS011;3806;52.270;10.544;2022-09-16T15:18:00;2.78;;;0.95;;
7529;SDS011;3806;52.270;10.544;2022-09-16T15:20:30;1.73;;;0.85;;
7529;SDS011;3806;52.270;10.544;2022-09-16T15:22:58;2.00;;;0.63;;
7529;SDS011;3806;52.270;10.544;2022-09-16T15:25:27;0.55;;;0.50;;
7529;SDS011;3806;52.270;10.544;2022-09-16T15:28:04;3.72;;;0.75;;
7529;SDS011;3806;52.270;10.544;2022-09-16T15:30:47;1.90;;;0.80;;
7529;SDS011;3806;52.270;10.544;2022-09-16T15:33:23;5.65;;;0.80;;
7529;SDS011;3806;52.270;10.544;2022-09-16T15:35:50;0.77;;;0.30;;
7529;SDS011;3806;52.270;10.544;2022-09-16T15:38:20;4.13;;;0.70;;
7529;SDS011;3806;52.270;10.544;2022-09-16T15:40:47;3.75;;;0.80;;
7529;SDS011;3806;52.270;10.544;2022-09-16T15:43:35;1.77;;;0.75;;
7529;SDS011;3806;52.270;10.544;2022-09-16T15:46:04;1.08;;;0.30;;
7529;SDS011;3806;52.270;10.544;2022-09-16T15:48:43;1.15;;;0.73;;
7529;SDS011;3806;52.270;10.544;2022-09-16T15:54:19;1.50;;;0.60;;
7529;SDS011;3806;52.270;10.544;2022-09-16T15:56:54;3.30;;;0.80;;
7529;SDS011;3806;52.270;10.544;2022-09-16T15:59:34;0.63;;;0.25;;
7529;SDS011;3806;52.270;10.544;2022-09-16T16:07:55;3.90;;;0.55;;
7529;SDS011;3806;52.270;10.544;2022-09-16T16:10:32;1.35;;;0.32;;
7529;SDS011;3806;52.270;10.544;2022-09-16T16:13:00;0.87;;;0.53;;
7529;SDS011;3806;52.270;10.544;2022-09-16T16:15:29;2.13;;;0.65;;
7529;SDS011;3806;52.270;10.544;2022-09-16T16:17:59;2.17;;;0.45;;
7529;SDS011;3806;52.270;10.544;2022-09-16T16:20:27;3.70;;;0.68;;
7529;SDS011;3806;52.270;10.544;2022-09-16T16:22:53;4.22;;;0.68;;
7529;SDS011;3806;52.270;10.544;2022-09-16T16:25:19;2.65;;;1.08;;
7529;SDS011;3806;52.270;10.544;2022-09-16T16:27:44;2.30;;;1.10;;
7529;SDS011;3806;52.270;10.544;2022-09-16T16:30:10;1.45;;;0.93;;
7529;SDS011;3806;52.270;10.544;2022-09-16T16:32:36;2.47;;;0.45;;
7529;SDS011;3806;52.270;10.544;2022-09-16T16:35:03;1.83;;;0.65;;
7529;SDS011;3806;52.270;10.544;2022-09-16T16:37:29;5.03;;;1.05;;
7529;SDS011;3806;52.270;10.544;2022-09-16T16:39:55;4.00;;;1.85;;
7529;SDS011;3806;52.270;10.544;2022-09-16T16:42:21;2.92;;;1.63;;
7529;SDS011;3806;52.270;10.544;2022-09-16T16:44:47;3.20;;;1.30;;
7529;SDS011;3806;52.270;10.544;2022-09-16T16:47:13;1.30;;;0.52;;
7529;SDS011;3806;52.270;10.544;2022-09-16T16:49:39;2.45;;;0.82;;
7529;SDS011;3806;52.270;10.544;2022-09-16T16:52:05;2.00;;;0.93;;
7529;SDS011;3806;52.270;10.544;2022-09-16T16:54:32;1.90;;;0.52;;
7529;SDS011;3806;52.270;10.544;2022-09-16T16:56:58;1.60;;;0.90;;
7529;SDS011;3806;52.270;10.544;2022-09-16T16:59:24;2.63;;;0.90;;
7529;SDS011;3806;52.270;10.544;2022-09-16T17:01:52;3.60;;;0.95;;
7529;SDS011;3806;52.270;10.544;2022-09-16T17:04:19;2.90;;;1.02;;
7529;SDS011;3806;52.270;10.544;2022-09-16T17:06:45;4.07;;;0.77;;
7529;SDS011;3806;52.270;10.544;2022-09-16T17:09:11;1.63;;;0.93;;
7529;SDS011;3806;52.270;10.544;2022-09-16T17:11:48;1.90;;;0.80;;
7529;SDS011;3806;52.270;10.544;2022-09-16T17:14:19;3.20;;;0.90;;
7529;SDS011;3806;52.270;10.544;2022-09-16T17:16:48;3.03;;;0.73;;
7529;SDS011;3806;52.270;10.544;2022-09-16T17:19:15;2.47;;;0.63;;
7529;SDS011;3806;52.270;10.544;2022-09-16T17:21:42;0.30;;;0.30;;
7529;SDS011;3806;52.270;10.544;2022-09-16T17:24:09;4.80;;;1.13;;
7529;SDS011;3806;52.270;10.544;2022-09-16T17:26:35;2.92;;;1.65;;
7529;SDS011;3806;52.270;10.544;2022-09-16T17:29:01;1.92;;;0.85;;
7529;SDS011;3806;52.270;10.544;2022-09-16T17:31:28;4.25;;;1.67;;
7529;SDS011;3806;52.270;10.544;2022-09-16T17:33:56;2.17;;;0.82;;
7529;SDS011;3806;52.270;10.544;2022-09-16T17:36:29;5.03;;;1.13;;
7529;SDS011;3806;52.270;10.544;2022-09-16T17:39:00;5.15;;;1.00;;
7529;SDS011;3806;52.270;10.544;2022-09-16T17:41:31;5.75;;;1.10;;
7529;SDS011;3806;52.270;10.544;2022-09-16T17:43:57;4.00;;;0.80;;
7529;SDS011;3806;52.270;10.544;2022-09-16T17:46:24;3.20;;;1.10;;
7529;SDS011;3806;52.270;10.544;2022-09-16T17:48:57;3.40;;;0.80;;
7529;SDS011;3806;52.270;10.544;2022-09-16T17:51:31;4.55;;;1.30;;
7529;SDS011;3806;52.270;10.544;2022-09-16T17:53:57;2.33;;;1.30;;
7529;SDS011;3806;52.270;10.544;2022-09-16T17:56:23;6.05;;;1.48;;
7529;SDS011;3806;52.270;10.544;2022-09-16T17:58:49;3.40;;;0.95;;
7529;SDS011;3806;52.270;10.544;2022-09-16T18:01:17;3.40;;;0.82;;
7529;SDS011;3806;52.270;10.544;2022-09-16T18:03:45;2.30;;;0.73;;
7529;SDS011;3806;52.270;10.544;2022-09-16T18:06:13;1.20;;;0.70;;
7529;SDS011;3806;52.270;10.544;2022-09-16T18:08:40;1.42;;;0.85;;
7529;SDS011;3806;52.270;10.544;2022-09-16T18:11:07;1.40;;;0.80;;
7529;SDS011;3806;52.270;10.544;2022-09-16T18:13:35;3.22;;;0.98;;
7529;SDS011;3806;52.270;10.544;2022-09-16T18:16:03;5.03;;;0.98;;
7529;SDS011;3806;52.270;10.544;2022-09-16T18:18:31;4.10;;;1.00;;
7529;SDS011;3806;52.270;10.544;2022-09-16T18:21:00;3.65;;;1.60;;
7529;SDS011;3806;52.270;10.544;2022-09-16T18:23:26;6.40;;;1.30;;
7529;SDS011;3806;52.270;10.544;2022-09-16T18:25:52;2.30;;;1.13;;
7529;SDS011;3806;52.270;10.544;2022-09-16T18:28:19;5.07;;;1.00;;
7529;SDS011;3806;52.270;10.544;2022-09-16T18:30:45;4.20;;;0.90;;
7529;SDS011;3806;52.270;10.544;2022-09-16T18:33:10;5.28;;;1.15;;
7529;SDS011;3806;52.270;10.544;2022-09-16T18:35:36;6.70;;;1.50;;
7529;SDS011;3806;52.270;10.544;2022-09-16T18:38:03;8.68;;;1.40;;